sensor_id;sensor_type;location;lat;lon;timestamp;P1;durP1;ratioP1;P2;durP2;ratioP2
4268;SDS011;2148;48.554;7.834;2023-10-08T00:00:46;11.90;;;11.00;;
4268;SDS011;2148;48.554;7.834;2023-10-08T00:03:21;11.47;;;10.53;;
4268;SDS011;2148;48.554;7.834;2023-10-08T00:05:47;11.27;;;10.43;;
4268;SDS011;2148;48.554;7.834;2023-10-08T00:08:14;11.93;;;10.93;;
4268;SDS011;2148;48.554;7.834;2023-10-08T00:10:39;12.83;;;11.77;;
4268;SDS011;2148;48.554;7.834;2023-10-08T00:13:06;12.13;;;11.13;;
4268;SDS011;2148;48.554;7.834;2023-10-08T00:15:34;11.80;;;10.90;;
4268;SDS011;2148;48.554;7.834;2023-10-08T00:18:06;12.33;;;11.27;;
4268;SDS011;2148;48.554;7.834;2023-10-08T00:20:32;13.07;;;12.07;;
4268;SDS011;2148;48.554;7.834;2023-10-08T00:23:09;11.67;;;10.87;;
4268;SDS011;2148;48.554;7.834;2023-10-08T00:25:34;11.93;;;11.13;;
4268;SDS011;2148;48.554;7.834;2023-10-08T00:28:05;13.30;;;12.10;;
4268;SDS011;2148;48.554;7.834;2023-10-08T00:30:35;11.60;;;10.80;;
4268;SDS011;2148;48.554;7.834;2023-10-08T00:33:03;11.60;;;10.60;;
4268;SDS011;2148;48.554;7.834;2023-10-08T00:35:29;12.77;;;11.87;;
4268;SDS011;2148;48.554;7.834;2023-10-08T00:37:55;12.13;;;11.03;;
4268;SDS011;2148;48.554;7.834;2023-10-08T00:40:25;10.83;;;10.03;;
4268;SDS011;2148;48.554;7.834;2023-10-08T00:43:00;11.67;;;10.83;;
4268;SDS011;2148;48.554;7.834;2023-10-08T00:45:29;11.40;;;10.50;;
4268;SDS011;2148;48.554;7.834;2023-10-08T00:47:55;11.20;;;10.30;;
4268;SDS011;2148;48.554;7.834;2023-10-08T00:50:21;11.77;;;10.67;;
4268;SDS011;2148;48.554;7.834;2023-10-08T00:52:50;11.37;;;10.57;;
4268;SDS011;2148;48.554;7.834;2023-10-08T00:55:35;11.90;;;10.80;;
4268;SDS011;2148;48.554;7.834;2023-10-08T00:58:00;11.10;;;10.30;;
4268;SDS011;2148;48.554;7.834;2023-10-08T01:00:37;11.00;;;10.20;;
4268;SDS011;2148;48.554;7.834;2023-10-08T01:03:06;11.47;;;10.57;;
4268;SDS011;2148;48.554;7.834;2023-10-08T01:05:40;10.67;;;9.83;;
4268;SDS011;2148;48.554;7.834;2023-10-08T01:08:11;10.93;;;10.03;;
4268;SDS011;2148;48.554;7.834;2023-10-08T01:10:37;10.87;;;9.97;;
4268;SDS011;2148;48.554;7.834;2023-10-08T01:13:05;11.70;;;10.73;;
4268;SDS011;2148;48.554;7.834;2023-10-08T01:15:35;12.37;;;11.37;;
4268;SDS011;2148;48.554;7.834;2023-10-08T01:18:03;11.60;;;10.80;;
4268;SDS011;2148;48.554;7.834;2023-10-08T01:20:39;11.40;;;10.50;;
4268;SDS011;2148;48.554;7.834;2023-10-08T01:23:17;11.33;;;10.53;;
4268;SDS011;2148;48.554;7.834;2023-10-08T01:25:46;11.23;;;10.37;;
4268;SDS011;2148;48.554;7.834;2023-10-08T01:28:20;11.63;;;10.73;;
4268;SDS011;2148;48.554;7.834;2023-10-08T01:30:54;10.83;;;10.03;;
4268;SDS011;2148;48.554;7.834;2023-10-08T01:33:22;11.63;;;10.83;;
4268;SDS011;2148;48.554;7.834;2023-10-08T01:35:48;12.87;;;11.77;;
4268;SDS011;2148;48.554;7.834;2023-10-08T01:38:14;11.70;;;10.83;;
4268;SDS011;2148;48.554;7.834;2023-10-08T01:40:40;12.83;;;11.93;;
4268;SDS011;2148;48.554;7.834;2023-10-08T01:43:08;12.03;;;11.03;;
4268;SDS011;2148;48.554;7.834;2023-10-08T01:45:37;11.53;;;10.73;;
4268;SDS011;2148;48.554;7.834;2023-10-08T01:48:07;13.03;;;12.10;;
4268;SDS011;2148;48.554;7.834;2023-10-08T01:50:36;12.43;;;11.43;;
4268;SDS011;2148;48.554;7.834;2023-10-08T01:53:02;12.57;;;11.57;;
4268;SDS011;2148;48.554;7.834;2023-10-08T01:55:30;12.17;;;11.37;;
4268;SDS011;2148;48.554;7.834;2023-10-08T01:57:59;12.63;;;11.63;;
4268;SDS011;2148;48.554;7.834;2023-10-08T02:00:24;12.10;;;11.27;;
4268;SDS011;2148;48.554;7.834;2023-10-08T02:02:51;12.23;;;11.33;;
4268;SDS011;2148;48.554;7.834;2023-10-08T02:05:18;12.37;;;11.50;;
4268;SDS011;2148;48.554;7.834;2023-10-08T02:07:44;11.63;;;10.73;;
4268;SDS011;2148;48.554;7.834;2023-10-08T02:23:40;12.00;;;11.00;;
4268;SDS011;2148;48.554;7.834;2023-10-08T02:26:05;14.90;;;13.80;;
4268;SDS011;2148;48.554;7.834;2023-10-08T02:28:30;13.43;;;12.23;;
4268;SDS011;2148;48.554;7.834;2023-10-08T02:30:58;12.70;;;11.83;;
4268;SDS011;2148;48.554;7.834;2023-10-08T02:33:24;12.37;;;11.47;;
4268;SDS011;2148;48.554;7.834;2023-10-08T02:35:51;12.10;;;11.20;;
4268;SDS011;2148;48.554;7.834;2023-10-08T02:38:17;12.50;;;11.40;;
4268;SDS011;2148;48.554;7.834;2023-10-08T02:40:43;14.33;;;13.43;;
4268;SDS011;2148;48.554;7.834;2023-10-08T02:43:19;13.33;;;12.23;;
4268;SDS011;2148;48.554;7.834;2023-10-08T02:45:45;14.90;;;13.67;;
4268;SDS011;2148;48.554;7.834;2023-10-08T02:48:14;13.17;;;12.07;;
4268;SDS011;2148;48.554;7.834;2023-10-08T02:50:40;13.50;;;12.70;;
4268;SDS011;2148;48.554;7.834;2023-10-08T02:53:05;12.93;;;12.03;;
4268;SDS011;2148;48.554;7.834;2023-10-08T02:55:36;13.20;;;12.23;;
4268;SDS011;2148;48.554;7.834;2023-10-08T02:58:08;14.43;;;13.37;;
4268;SDS011;2148;48.554;7.834;2023-10-08T03:00:41;16.10;;;15.03;;
4268;SDS011;2148;48.554;7.834;2023-10-08T03:03:07;13.17;;;12.17;;
4268;SDS011;2148;48.554;7.834;2023-10-08T03:05:44;15.43;;;14.33;;
4268;SDS011;2148;48.554;7.834;2023-10-08T03:08:11;15.67;;;14.60;;
4268;SDS011;2148;48.554;7.834;2023-10-08T03:10:37;15.10;;;14.10;;
4268;SDS011;2148;48.554;7.834;2023-10-08T03:13:03;14.73;;;13.63;;
4268;SDS011;2148;48.554;7.834;2023-10-08T03:15:34;12.87;;;11.87;;
4268;SDS011;2148;48.554;7.834;2023-10-08T03:18:11;14.83;;;13.87;;
4268;SDS011;2148;48.554;7.834;2023-10-08T03:20:39;15.60;;;14.63;;
4268;SDS011;2148;48.554;7.834;2023-10-08T03:23:11;14.40;;;13.30;;
4268;SDS011;2148;48.554;7.834;2023-10-08T03:25:41;14.37;;;13.47;;
4268;SDS011;2148;48.554;7.834;2023-10-08T03:28:09;13.83;;;13.03;;
4268;SDS011;2148;48.554;7.834;2023-10-08T03:30:38;17.33;;;16.23;;
4268;SDS011;2148;48.554;7.834;2023-10-08T03:33:14;16.27;;;15.27;;
4268;SDS011;2148;48.554;7.834;2023-10-08T03:35:47;21.03;;;19.87;;
4268;SDS011;2148;48.554;7.834;2023-10-08T03:38:14;19.40;;;18.20;;
4268;SDS011;2148;48.554;7.834;2023-10-08T03:40:56;17.47;;;16.37;;
4268;SDS011;2148;48.554;7.834;2023-10-08T03:43:33;20.13;;;18.93;;
4268;SDS011;2148;48.554;7.834;2023-10-08T03:46:00;19.43;;;18.27;;
4268;SDS011;2148;48.554;7.834;2023-10-08T03:48:30;18.93;;;17.77;;
4268;SDS011;2148;48.554;7.834;2023-10-08T03:51:03;18.67;;;17.60;;
4268;SDS011;2148;48.554;7.834;2023-10-08T03:53:32;18.33;;;17.23;;
4268;SDS011;2148;48.554;7.834;2023-10-08T03:56:07;18.93;;;17.63;;
4268;SDS011;2148;48.554;7.834;2023-10-08T03:58:32;21.40;;;20.30;;
4268;SDS011;2148;48.554;7.834;2023-10-08T04:00:59;15.70;;;14.80;;
4268;SDS011;2148;48.554;7.834;2023-10-08T04:03:37;16.07;;;14.97;;
4268;SDS011;2148;48.554;7.834;2023-10-08T04:06:28;15.23;;;14.13;;
4268;SDS011;2148;48.554;7.834;2023-10-08T04:08:56;15.93;;;14.83;;
4268;SDS011;2148;48.554;7.834;2023-10-08T04:11:34;15.60;;;14.67;;
4268;SDS011;2148;48.554;7.834;2023-10-08T04:14:22;16.67;;;15.60;;
4268;SDS011;2148;48.554;7.834;2023-10-08T04:16:49;17.60;;;16.50;;
4268;SDS011;2148;48.554;7.834;2023-10-08T04:19:17;18.20;;;17.20;;
4268;SDS011;2148;48.554;7.834;2023-10-08T04:21:44;17.87;;;16.67;;
4268;SDS011;2148;48.554;7.834;2023-10-08T04:24:10;18.03;;;16.83;;
4268;SDS011;2148;48.554;7.834;2023-10-08T04:26:36;18.47;;;17.27;;
4268;SDS011;2148;48.554;7.834;2023-10-08T04:29:04;18.30;;;17.30;;
4268;SDS011;2148;48.554;7.834;2023-10-08T04:31:33;15.97;;;14.77;;
4268;SDS011;2148;48.554;7.834;2023-10-08T04:34:09;15.17;;;14.13;;
4268;SDS011;2148;48.554;7.834;2023-10-08T04:36:43;17.53;;;16.47;;
4268;SDS011;2148;48.554;7.834;2023-10-08T04:39:18;18.80;;;17.53;;
4268;SDS011;2148;48.554;7.834;2023-10-08T04:41:46;19.23;;;18.13;;
4268;SDS011;2148;48.554;7.834;2023-10-08T04:44:13;19.80;;;18.60;;
4268;SDS011;2148;48.554;7.834;2023-10-08T04:46:42;18.30;;;17.20;;
4268;SDS011;2148;48.554;7.834;2023-10-08T04:49:12;20.30;;;18.93;;
4268;SDS011;2148;48.554;7.834;2023-10-08T04:52:02;18.77;;;17.67;;
4268;SDS011;2148;48.554;7.834;2023-10-08T04:54:38;20.60;;;19.50;;
4268;SDS011;2148;48.554;7.834;2023-10-08T04:57:05;20.43;;;19.23;;
4268;SDS011;2148;48.554;7.834;2023-10-08T04:59:32;18.37;;;17.27;;
4268;SDS011;2148;48.554;7.834;2023-10-08T05:01:59;22.13;;;20.80;;
4268;SDS011;2148;48.554;7.834;2023-10-08T05:04:44;18.90;;;17.80;;
4268;SDS011;2148;48.554;7.834;2023-10-08T05:07:16;17.67;;;16.47;;
4268;SDS011;2148;48.554;7.834;2023-10-08T05:10:00;17.03;;;16.00;;
4268;SDS011;2148;48.554;7.834;2023-10-08T05:12:28;18.53;;;17.37;;
4268;SDS011;2148;48.554;7.834;2023-10-08T05:15:11;18.07;;;17.13;;
4268;SDS011;2148;48.554;7.834;2023-10-08T05:17:44;19.07;;;18.07;;
4268;SDS011;2148;48.554;7.834;2023-10-08T05:20:18;19.03;;;17.83;;
4268;SDS011;2148;48.554;7.834;2023-10-08T05:22:58;21.33;;;20.17;;
4268;SDS011;2148;48.554;7.834;2023-10-08T05:25:52;18.53;;;17.47;;
4268;SDS011;2148;48.554;7.834;2023-10-08T05:28:23;21.70;;;20.37;;
4268;SDS011;2148;48.554;7.834;2023-10-08T05:30:52;21.00;;;19.70;;
4268;SDS011;2148;48.554;7.834;2023-10-08T05:33:39;18.50;;;17.37;;
4268;SDS011;2148;48.554;7.834;2023-10-08T05:36:31;19.80;;;18.60;;
4268;SDS011;2148;48.554;7.834;2023-10-08T05:39:15;19.47;;;18.27;;
4268;SDS011;2148;48.554;7.834;2023-10-08T05:41:50;19.30;;;18.17;;
4268;SDS011;2148;48.554;7.834;2023-10-08T05:44:36;19.60;;;18.23;;
4268;SDS011;2148;48.554;7.834;2023-10-08T05:47:04;21.13;;;19.77;;
4268;SDS011;2148;48.554;7.834;2023-10-08T05:49:51;22.10;;;20.83;;
4268;SDS011;2148;48.554;7.834;2023-10-08T05:52:39;19.10;;;18.00;;
4268;SDS011;2148;48.554;7.834;2023-10-08T05:55:20;23.53;;;22.33;;
4268;SDS011;2148;48.554;7.834;2023-10-08T05:58:09;19.40;;;18.40;;
4268;SDS011;2148;48.554;7.834;2023-10-08T06:00:41;22.93;;;21.63;;
4268;SDS011;2148;48.554;7.834;2023-10-08T06:03:18;21.63;;;20.50;;
4268;SDS011;2148;48.554;7.834;2023-10-08T06:05:57;22.83;;;21.63;;
4268;SDS011;2148;48.554;7.834;2023-10-08T06:08:41;21.73;;;20.23;;
4268;SDS011;2148;48.554;7.834;2023-10-08T06:11:25;21.73;;;20.43;;
4268;SDS011;2148;48.554;7.834;2023-10-08T06:14:09;21.57;;;20.37;;
4268;SDS011;2148;48.554;7.834;2023-10-08T06:16:57;23.17;;;22.00;;
4268;SDS011;2148;48.554;7.834;2023-10-08T06:19:48;23.97;;;22.60;;
4268;SDS011;2148;48.554;7.834;2023-10-08T06:22:14;22.70;;;21.57;;
4268;SDS011;2148;48.554;7.834;2023-10-08T06:24:39;24.07;;;22.67;;
4268;SDS011;2148;48.554;7.834;2023-10-08T06:27:05;22.40;;;21.27;;
4268;SDS011;2148;48.554;7.834;2023-10-08T06:29:32;23.73;;;22.33;;
4268;SDS011;2148;48.554;7.834;2023-10-08T06:31:57;22.63;;;21.43;;
4268;SDS011;2148;48.554;7.834;2023-10-08T06:34:27;23.83;;;22.53;;
4268;SDS011;2148;48.554;7.834;2023-10-08T06:36:53;23.50;;;22.10;;
4268;SDS011;2148;48.554;7.834;2023-10-08T06:39:21;22.83;;;21.43;;
4268;SDS011;2148;48.554;7.834;2023-10-08T06:41:50;23.17;;;21.97;;
4268;SDS011;2148;48.554;7.834;2023-10-08T06:44:19;22.60;;;21.30;;
4268;SDS011;2148;48.554;7.834;2023-10-08T06:46:45;23.23;;;22.07;;
4268;SDS011;2148;48.554;7.834;2023-10-08T06:49:10;23.17;;;21.87;;
4268;SDS011;2148;48.554;7.834;2023-10-08T06:51:39;23.37;;;22.13;;
4268;SDS011;2148;48.554;7.834;2023-10-08T06:54:06;22.67;;;21.37;;
4268;SDS011;2148;48.554;7.834;2023-10-08T06:56:35;21.13;;;19.93;;
4268;SDS011;2148;48.554;7.834;2023-10-08T06:59:00;21.87;;;20.63;;
4268;SDS011;2148;48.554;7.834;2023-10-08T07:01:26;22.20;;;20.47;;
4268;SDS011;2148;48.554;7.834;2023-10-08T07:04:03;21.60;;;20.23;;
4268;SDS011;2148;48.554;7.834;2023-10-08T07:06:36;24.03;;;22.70;;
4268;SDS011;2148;48.554;7.834;2023-10-08T07:09:02;20.83;;;19.53;;
4268;SDS011;2148;48.554;7.834;2023-10-08T07:11:33;21.73;;;20.50;;
4268;SDS011;2148;48.554;7.834;2023-10-08T07:14:04;22.07;;;20.67;;
4268;SDS011;2148;48.554;7.834;2023-10-08T07:16:30;23.77;;;22.40;;
4268;SDS011;2148;48.554;7.834;2023-10-08T07:18:56;23.27;;;22.00;;
4268;SDS011;2148;48.554;7.834;2023-10-08T07:21:27;20.97;;;19.57;;
4268;SDS011;2148;48.554;7.834;2023-10-08T07:24:14;22.20;;;20.93;;
4268;SDS011;2148;48.554;7.834;2023-10-08T07:26:46;21.13;;;20.07;;
4268;SDS011;2148;48.554;7.834;2023-10-08T07:29:15;21.30;;;20.13;;
4268;SDS011;2148;48.554;7.834;2023-10-08T07:31:45;21.50;;;20.30;;
4268;SDS011;2148;48.554;7.834;2023-10-08T07:34:17;20.70;;;19.40;;
4268;SDS011;2148;48.554;7.834;2023-10-08T07:36:45;23.43;;;22.13;;
4268;SDS011;2148;48.554;7.834;2023-10-08T07:39:15;21.00;;;19.90;;
4268;SDS011;2148;48.554;7.834;2023-10-08T07:41:51;18.87;;;17.80;;
4268;SDS011;2148;48.554;7.834;2023-10-08T07:44:17;17.07;;;16.00;;
4268;SDS011;2148;48.554;7.834;2023-10-08T07:46:47;17.47;;;16.33;;
4268;SDS011;2148;48.554;7.834;2023-10-08T07:49:13;17.10;;;16.00;;
4268;SDS011;2148;48.554;7.834;2023-10-08T07:51:39;21.73;;;20.53;;
4268;SDS011;2148;48.554;7.834;2023-10-08T07:54:05;17.37;;;16.30;;
4268;SDS011;2148;48.554;7.834;2023-10-08T07:56:34;19.33;;;18.20;;
4268;SDS011;2148;48.554;7.834;2023-10-08T07:59:02;20.27;;;18.87;;
4268;SDS011;2148;48.554;7.834;2023-10-08T08:01:33;21.57;;;20.30;;
4268;SDS011;2148;48.554;7.834;2023-10-08T08:03:59;20.30;;;19.00;;
4268;SDS011;2148;48.554;7.834;2023-10-08T08:06:24;23.40;;;22.10;;
4268;SDS011;2148;48.554;7.834;2023-10-08T08:08:50;23.03;;;21.70;;
4268;SDS011;2148;48.554;7.834;2023-10-08T08:11:16;23.13;;;21.93;;
4268;SDS011;2148;48.554;7.834;2023-10-08T08:13:44;24.97;;;23.67;;
4268;SDS011;2148;48.554;7.834;2023-10-08T08:16:10;23.73;;;22.53;;
4268;SDS011;2148;48.554;7.834;2023-10-08T08:18:45;24.17;;;22.87;;
4268;SDS011;2148;48.554;7.834;2023-10-08T08:21:11;23.13;;;22.07;;
4268;SDS011;2148;48.554;7.834;2023-10-08T08:23:44;21.57;;;20.17;;
4268;SDS011;2148;48.554;7.834;2023-10-08T08:26:19;23.10;;;21.70;;
4268;SDS011;2148;48.554;7.834;2023-10-08T08:28:56;19.80;;;18.60;;
4268;SDS011;2148;48.554;7.834;2023-10-08T08:31:22;26.20;;;24.90;;
4268;SDS011;2148;48.554;7.834;2023-10-08T08:33:49;32.27;;;30.67;;
4268;SDS011;2148;48.554;7.834;2023-10-08T08:36:18;23.13;;;21.87;;
4268;SDS011;2148;48.554;7.834;2023-10-08T08:38:44;19.83;;;18.67;;
4268;SDS011;2148;48.554;7.834;2023-10-08T08:41:09;15.30;;;14.27;;
4268;SDS011;2148;48.554;7.834;2023-10-08T08:43:37;12.77;;;11.77;;
4268;SDS011;2148;48.554;7.834;2023-10-08T08:46:08;11.23;;;10.43;;
4268;SDS011;2148;48.554;7.834;2023-10-08T08:48:37;10.13;;;9.30;;
4268;SDS011;2148;48.554;7.834;2023-10-08T08:51:04;10.87;;;9.83;;
4268;SDS011;2148;48.554;7.834;2023-10-08T08:53:32;12.17;;;11.07;;
4268;SDS011;2148;48.554;7.834;2023-10-08T08:55:57;12.17;;;11.17;;
4268;SDS011;2148;48.554;7.834;2023-10-08T08:58:25;12.53;;;11.03;;
4268;SDS011;2148;48.554;7.834;2023-10-08T09:00:50;11.83;;;10.87;;
4268;SDS011;2148;48.554;7.834;2023-10-08T09:03:17;13.73;;;12.53;;
4268;SDS011;2148;48.554;7.834;2023-10-08T09:05:44;13.87;;;12.70;;
4268;SDS011;2148;48.554;7.834;2023-10-08T09:08:14;14.00;;;13.00;;
4268;SDS011;2148;48.554;7.834;2023-10-08T09:10:43;12.57;;;11.67;;
4268;SDS011;2148;48.554;7.834;2023-10-08T09:13:19;11.93;;;10.83;;
4268;SDS011;2148;48.554;7.834;2023-10-08T09:15:46;13.47;;;12.27;;
4268;SDS011;2148;48.554;7.834;2023-10-08T09:18:12;13.53;;;12.57;;
4268;SDS011;2148;48.554;7.834;2023-10-08T09:20:39;12.13;;;11.03;;
4268;SDS011;2148;48.554;7.834;2023-10-08T09:23:13;12.30;;;11.20;;
4268;SDS011;2148;48.554;7.834;2023-10-08T09:25:43;11.47;;;10.47;;
4268;SDS011;2148;48.554;7.834;2023-10-08T09:28:10;10.77;;;9.90;;
4268;SDS011;2148;48.554;7.834;2023-10-08T09:30:38;11.40;;;10.10;;
4268;SDS011;2148;48.554;7.834;2023-10-08T09:33:08;10.83;;;10.00;;
4268;SDS011;2148;48.554;7.834;2023-10-08T09:35:35;11.13;;;10.23;;
4268;SDS011;2148;48.554;7.834;2023-10-08T09:38:02;8.93;;;7.63;;
4268;SDS011;2148;48.554;7.834;2023-10-08T09:40:28;9.17;;;8.23;;
4268;SDS011;2148;48.554;7.834;2023-10-08T09:42:54;12.17;;;8.80;;
4268;SDS011;2148;48.554;7.834;2023-10-08T09:45:20;8.57;;;7.87;;
4268;SDS011;2148;48.554;7.834;2023-10-08T09:47:50;9.37;;;8.47;;
4268;SDS011;2148;48.554;7.834;2023-10-08T09:50:21;8.97;;;7.57;;
4268;SDS011;2148;48.554;7.834;2023-10-08T09:53:10;9.80;;;8.87;;
4268;SDS011;2148;48.554;7.834;2023-10-08T09:55:43;7.80;;;7.10;;
4268;SDS011;2148;48.554;7.834;2023-10-08T09:58:10;9.53;;;7.90;;
4268;SDS011;2148;48.554;7.834;2023-10-08T10:00:38;8.60;;;7.90;;
4268;SDS011;2148;48.554;7.834;2023-10-08T10:03:04;8.77;;;8.07;;
4268;SDS011;2148;48.554;7.834;2023-10-08T10:05:33;8.60;;;7.80;;
4268;SDS011;2148;48.554;7.834;2023-10-08T10:08:02;8.43;;;7.63;;
4268;SDS011;2148;48.554;7.834;2023-10-08T10:10:31;9.33;;;8.53;;
4268;SDS011;2148;48.554;7.834;2023-10-08T10:13:00;11.63;;;10.83;;
4268;SDS011;2148;48.554;7.834;2023-10-08T10:15:25;10.63;;;9.93;;
4268;SDS011;2148;48.554;7.834;2023-10-08T10:17:51;12.50;;;11.67;;
4268;SDS011;2148;48.554;7.834;2023-10-08T10:20:17;10.93;;;10.20;;
4268;SDS011;2148;48.554;7.834;2023-10-08T10:22:42;11.23;;;10.33;;
4268;SDS011;2148;48.554;7.834;2023-10-08T10:25:09;11.77;;;10.97;;
4268;SDS011;2148;48.554;7.834;2023-10-08T10:27:42;12.20;;;11.23;;
4268;SDS011;2148;48.554;7.834;2023-10-08T10:30:31;11.47;;;10.77;;
4268;SDS011;2148;48.554;7.834;2023-10-08T10:32:59;11.73;;;10.83;;
4268;SDS011;2148;48.554;7.834;2023-10-08T10:35:25;10.73;;;10.03;;
4268;SDS011;2148;48.554;7.834;2023-10-08T10:37:52;11.60;;;10.70;;
4268;SDS011;2148;48.554;7.834;2023-10-08T10:40:28;10.93;;;10.23;;
4268;SDS011;2148;48.554;7.834;2023-10-08T10:43:04;11.63;;;10.83;;
4268;SDS011;2148;48.554;7.834;2023-10-08T10:45:34;9.93;;;8.37;;
4268;SDS011;2148;48.554;7.834;2023-10-08T10:48:07;11.40;;;10.43;;
4268;SDS011;2148;48.554;7.834;2023-10-08T10:50:41;11.47;;;10.40;;
4268;SDS011;2148;48.554;7.834;2023-10-08T10:53:25;10.43;;;8.93;;
4268;SDS011;2148;48.554;7.834;2023-10-08T10:55:52;10.83;;;9.97;;
4268;SDS011;2148;48.554;7.834;2023-10-08T10:58:25;9.90;;;9.10;;
4268;SDS011;2148;48.554;7.834;2023-10-08T11:00:51;9.77;;;9.07;;
4268;SDS011;2148;48.554;7.834;2023-10-08T11:03:24;11.10;;;10.00;;
4268;SDS011;2148;48.554;7.834;2023-10-08T11:05:50;10.03;;;9.27;;
4268;SDS011;2148;48.554;7.834;2023-10-08T11:08:19;10.43;;;9.57;;
4268;SDS011;2148;48.554;7.834;2023-10-08T11:10:48;10.13;;;8.97;;
4268;SDS011;2148;48.554;7.834;2023-10-08T11:13:17;8.90;;;8.23;;
4268;SDS011;2148;48.554;7.834;2023-10-08T11:15:45;12.23;;;7.37;;
4268;SDS011;2148;48.554;7.834;2023-10-08T11:18:15;9.43;;;8.13;;
4268;SDS011;2148;48.554;7.834;2023-10-08T11:20:41;9.03;;;8.23;;
4268;SDS011;2148;48.554;7.834;2023-10-08T11:23:09;7.93;;;7.13;;
4268;SDS011;2148;48.554;7.834;2023-10-08T11:25:58;7.47;;;6.87;;
4268;SDS011;2148;48.554;7.834;2023-10-08T11:28:27;7.97;;;7.17;;
4268;SDS011;2148;48.554;7.834;2023-10-08T11:30:53;10.07;;;7.10;;
4268;SDS011;2148;48.554;7.834;2023-10-08T11:33:19;9.33;;;7.73;;
4268;SDS011;2148;48.554;7.834;2023-10-08T11:35:55;11.03;;;7.30;;
4268;SDS011;2148;48.554;7.834;2023-10-08T11:38:23;7.63;;;6.73;;
4268;SDS011;2148;48.554;7.834;2023-10-08T11:40:49;7.10;;;6.40;;
4268;SDS011;2148;48.554;7.834;2023-10-08T11:43:14;7.73;;;6.93;;
4268;SDS011;2148;48.554;7.834;2023-10-08T11:45:44;7.93;;;7.23;;
4268;SDS011;2148;48.554;7.834;2023-10-08T11:48:15;6.63;;;5.83;;
4268;SDS011;2148;48.554;7.834;2023-10-08T11:50:53;8.67;;;6.30;;
4268;SDS011;2148;48.554;7.834;2023-10-08T11:53:22;7.57;;;6.73;;
4268;SDS011;2148;48.554;7.834;2023-10-08T11:55:49;7.33;;;6.70;;
4268;SDS011;2148;48.554;7.834;2023-10-08T11:58:14;8.67;;;7.07;;
4268;SDS011;2148;48.554;7.834;2023-10-08T12:00:43;7.83;;;6.90;;
4268;SDS011;2148;48.554;7.834;2023-10-08T12:03:17;9.30;;;6.77;;
4268;SDS011;2148;48.554;7.834;2023-10-08T12:05:43;9.30;;;6.27;;
4268;SDS011;2148;48.554;7.834;2023-10-08T12:08:15;8.20;;;7.00;;
4268;SDS011;2148;48.554;7.834;2023-10-08T12:10:44;6.67;;;6.17;;
4268;SDS011;2148;48.554;7.834;2023-10-08T12:13:13;7.50;;;6.80;;
4268;SDS011;2148;48.554;7.834;2023-10-08T12:15:41;7.00;;;6.30;;
4268;SDS011;2148;48.554;7.834;2023-10-08T12:18:06;7.67;;;6.87;;
4268;SDS011;2148;48.554;7.834;2023-10-08T12:20:41;8.03;;;7.00;;
4268;SDS011;2148;48.554;7.834;2023-10-08T12:23:10;9.00;;;6.57;;
4268;SDS011;2148;48.554;7.834;2023-10-08T12:25:38;7.73;;;6.27;;
4268;SDS011;2148;48.554;7.834;2023-10-08T12:28:04;7.93;;;6.60;;
4268;SDS011;2148;48.554;7.834;2023-10-08T12:30:30;7.87;;;6.03;;
4268;SDS011;2148;48.554;7.834;2023-10-08T12:32:57;8.37;;;6.17;;
4268;SDS011;2148;48.554;7.834;2023-10-08T12:35:23;6.30;;;5.70;;
4268;SDS011;2148;48.554;7.834;2023-10-08T12:37:49;9.53;;;6.73;;
4268;SDS011;2148;48.554;7.834;2023-10-08T12:40:15;7.23;;;5.90;;
4268;SDS011;2148;48.554;7.834;2023-10-08T12:42:52;8.83;;;6.93;;
4268;SDS011;2148;48.554;7.834;2023-10-08T12:45:18;7.00;;;6.27;;
4268;SDS011;2148;48.554;7.834;2023-10-08T12:47:49;8.87;;;6.37;;
4268;SDS011;2148;48.554;7.834;2023-10-08T12:50:16;7.20;;;5.77;;
4268;SDS011;2148;48.554;7.834;2023-10-08T12:52:43;8.10;;;6.00;;
4268;SDS011;2148;48.554;7.834;2023-10-08T12:55:17;8.30;;;5.90;;
4268;SDS011;2148;48.554;7.834;2023-10-08T12:57:43;7.33;;;6.43;;
4268;SDS011;2148;48.554;7.834;2023-10-08T13:00:14;12.53;;;7.33;;
4268;SDS011;2148;48.554;7.834;2023-10-08T13:02:39;8.17;;;6.60;;
4268;SDS011;2148;48.554;7.834;2023-10-08T13:05:07;7.40;;;6.70;;
4268;SDS011;2148;48.554;7.834;2023-10-08T13:07:41;6.87;;;6.03;;
4268;SDS011;2148;48.554;7.834;2023-10-08T13:10:08;9.07;;;6.37;;
4268;SDS011;2148;48.554;7.834;2023-10-08T13:12:36;9.77;;;6.70;;
4268;SDS011;2148;48.554;7.834;2023-10-08T13:15:02;7.17;;;6.13;;
4268;SDS011;2148;48.554;7.834;2023-10-08T13:17:31;7.33;;;6.47;;
4268;SDS011;2148;48.554;7.834;2023-10-08T13:19:56;10.07;;;6.67;;
4268;SDS011;2148;48.554;7.834;2023-10-08T13:22:22;9.13;;;6.40;;
4268;SDS011;2148;48.554;7.834;2023-10-08T13:24:49;7.53;;;6.43;;
4268;SDS011;2148;48.554;7.834;2023-10-08T13:27:14;7.27;;;6.13;;
4268;SDS011;2148;48.554;7.834;2023-10-08T13:29:41;7.90;;;5.97;;
4268;SDS011;2148;48.554;7.834;2023-10-08T13:32:08;7.77;;;6.17;;
4268;SDS011;2148;48.554;7.834;2023-10-08T13:34:42;7.60;;;6.20;;
4268;SDS011;2148;48.554;7.834;2023-10-08T13:37:07;8.83;;;5.60;;
4268;SDS011;2148;48.554;7.834;2023-10-08T13:39:33;8.67;;;6.23;;
4268;SDS011;2148;48.554;7.834;2023-10-08T13:42:00;8.30;;;5.93;;
4268;SDS011;2148;48.554;7.834;2023-10-08T13:44:26;8.80;;;6.20;;
4268;SDS011;2148;48.554;7.834;2023-10-08T13:46:55;16.63;;;6.30;;
4268;SDS011;2148;48.554;7.834;2023-10-08T13:49:23;9.40;;;5.70;;
4268;SDS011;2148;48.554;7.834;2023-10-08T13:51:51;10.03;;;6.23;;
4268;SDS011;2148;48.554;7.834;2023-10-08T13:54:20;9.07;;;6.50;;
4268;SDS011;2148;48.554;7.834;2023-10-08T13:56:46;9.23;;;6.20;;
4268;SDS011;2148;48.554;7.834;2023-10-08T13:59:13;9.87;;;7.00;;
4268;SDS011;2148;48.554;7.834;2023-10-08T14:01:39;9.77;;;7.93;;
4268;SDS011;2148;48.554;7.834;2023-10-08T14:04:08;8.23;;;6.50;;
4268;SDS011;2148;48.554;7.834;2023-10-08T14:06:39;10.37;;;6.10;;
4268;SDS011;2148;48.554;7.834;2023-10-08T14:09:07;9.80;;;6.57;;
4268;SDS011;2148;48.554;7.834;2023-10-08T14:11:34;9.63;;;6.23;;
4268;SDS011;2148;48.554;7.834;2023-10-08T14:14:00;7.77;;;6.63;;
4268;SDS011;2148;48.554;7.834;2023-10-08T14:16:29;8.63;;;5.53;;
4268;SDS011;2148;48.554;7.834;2023-10-08T14:18:57;8.80;;;5.47;;
4268;SDS011;2148;48.554;7.834;2023-10-08T14:21:24;8.77;;;6.63;;
4268;SDS011;2148;48.554;7.834;2023-10-08T14:23:55;10.97;;;6.43;;
4268;SDS011;2148;48.554;7.834;2023-10-08T14:26:21;6.70;;;5.57;;
4268;SDS011;2148;48.554;7.834;2023-10-08T14:28:47;7.13;;;5.83;;
4268;SDS011;2148;48.554;7.834;2023-10-08T14:31:18;10.07;;;5.60;;
4268;SDS011;2148;48.554;7.834;2023-10-08T14:33:47;7.87;;;6.00;;
4268;SDS011;2148;48.554;7.834;2023-10-08T14:36:44;8.53;;;5.77;;
4268;SDS011;2148;48.554;7.834;2023-10-08T14:39:32;8.00;;;6.53;;
4268;SDS011;2148;48.554;7.834;2023-10-08T14:42:16;9.07;;;7.40;;
4268;SDS011;2148;48.554;7.834;2023-10-08T14:45:00;9.27;;;7.33;;
4268;SDS011;2148;48.554;7.834;2023-10-08T14:47:26;15.03;;;8.30;;
4268;SDS011;2148;48.554;7.834;2023-10-08T14:49:51;12.63;;;6.90;;
4268;SDS011;2148;48.554;7.834;2023-10-08T14:52:17;9.63;;;7.10;;
4268;SDS011;2148;48.554;7.834;2023-10-08T14:54:43;9.23;;;7.03;;
4268;SDS011;2148;48.554;7.834;2023-10-08T14:57:09;11.83;;;7.67;;
4268;SDS011;2148;48.554;7.834;2023-10-08T14:59:37;8.50;;;7.33;;
4268;SDS011;2148;48.554;7.834;2023-10-08T15:02:02;10.27;;;6.60;;
4268;SDS011;2148;48.554;7.834;2023-10-08T15:04:28;11.60;;;6.57;;
4268;SDS011;2148;48.554;7.834;2023-10-08T15:06:54;7.17;;;5.93;;
4268;SDS011;2148;48.554;7.834;2023-10-08T15:09:21;9.20;;;6.73;;
4268;SDS011;2148;48.554;7.834;2023-10-08T15:11:48;9.90;;;6.70;;
4268;SDS011;2148;48.554;7.834;2023-10-08T15:14:17;10.83;;;6.90;;
4268;SDS011;2148;48.554;7.834;2023-10-08T15:16:44;11.17;;;7.20;;
4268;SDS011;2148;48.554;7.834;2023-10-08T15:19:12;9.10;;;7.23;;
4268;SDS011;2148;48.554;7.834;2023-10-08T15:21:38;7.83;;;7.03;;
4268;SDS011;2148;48.554;7.834;2023-10-08T15:24:05;10.03;;;7.53;;
4268;SDS011;2148;48.554;7.834;2023-10-08T15:26:36;10.67;;;7.30;;